< < Back
Terminal Aerodrome Forecast


Current Version              Previous Versions:   1  2  3  4  5  6  7  8  9  

Terminal Aerodrome Forecast

979
FTUS42 KGSP 240500
TAFGSP
TAF
KGSP 240537Z 2406/2506 04006KT P6SM SKC
     FM241600 08007KT P6SM SKC
     FM241900 14006KT P6SM FEW250
     FM250500 13003KT P6SM BKN060=

Latest METAR

432
SAUS70 KWBC 241200 RRH
MTRGSP
METAR KGSP 241153Z 01005KT 10SM CLR 11/01 A3010 RMK AO2 SLP187 T01060011
10144 20083 53027


USA.gov is the U.S. government's official web portal to all federal, state and local government web resources and services.